QFA641 YSSY-AGGH
Flight info
| Callsign | QFA641 |
|---|---|
| Flight time | N/A |
| Altitude | 33000 |
| Route | OLSEM Y193 BANDA H252 GOMOL/N0479F320 H252 BN Q67 BIXAD/N0479F330 A598 PONUX DCT 20S156E 15S158E DCT DASSA DASSA1B |
| Aircraft | B738/M-SDE2E3FGHIRWXY/LB1 |
Departure
| Time | N/A |
|---|---|
| Airport | Sydney Kingsford Smith International Airport (YSSY) |
Arrival
| Time | 2026-05-07 12:15 |
|---|---|
| Airport | Honiara International Airport (AGGH) |
| Time | Latitude | Longitude | Altitude | Speed | Heading |
|---|---|---|---|---|---|
| 2026-05-07 11:27 | -13.42468 | 158.58953 | 34929 ft | 484 kts | 17° |
| 2026-05-07 11:27 | -13.39301 | 158.60129 | 34931 ft | 484 kts | 17° |
| 2026-05-07 11:27 | -13.32971 | 158.62480 | 34930 ft | 484 kts | 17° |
| 2026-05-07 11:28 | -13.26641 | 158.64829 | 34925 ft | 484 kts | 17° |
| 2026-05-07 11:28 | -13.20313 | 158.67176 | 34928 ft | 483 kts | 17° |
| 2026-05-07 11:29 | -13.13996 | 158.69518 | 34923 ft | 483 kts | 17° |
| 2026-05-07 11:29 | -13.07677 | 158.71859 | 34923 ft | 482 kts | 17° |
| 2026-05-07 11:30 | -13.01364 | 158.74197 | 34918 ft | 482 kts | 17° |
| 2026-05-07 11:30 | -12.95060 | 158.76530 | 34922 ft | 482 kts | 17° |
| 2026-05-07 11:31 | -12.88753 | 158.78863 | 34926 ft | 482 kts | 18° |
| 2026-05-07 11:31 | -12.82451 | 158.81193 | 34922 ft | 481 kts | 18° |
| 2026-05-07 11:32 | -12.73048 | 158.84667 | 34923 ft | 481 kts | 18° |
| 2026-05-07 11:33 | -12.66739 | 158.86996 | 34910 ft | 481 kts | 18° |
| 2026-05-07 11:33 | -12.60444 | 158.89319 | 34916 ft | 481 kts | 18° |
| 2026-05-07 11:34 | -12.54142 | 158.91644 | 34920 ft | 481 kts | 18° |
| 2026-05-07 11:34 | -12.47838 | 158.93968 | 34917 ft | 482 kts | 18° |
| 2026-05-07 11:35 | -12.41527 | 158.96293 | 34918 ft | 482 kts | 18° |
| 2026-05-07 11:35 | -12.35209 | 158.98620 | 34914 ft | 483 kts | 18° |
| 2026-05-07 11:36 | -12.29014 | 159.00900 | 34919 ft | 483 kts | 18° |
| 2026-05-07 11:36 | -12.22689 | 159.03227 | 34916 ft | 483 kts | 18° |
| 2026-05-07 11:37 | -12.16364 | 159.05552 | 34918 ft | 483 kts | 18° |
| 2026-05-07 11:37 | -12.10031 | 159.07880 | 34914 ft | 483 kts | 18° |
| 2026-05-07 11:38 | -12.03701 | 159.10205 | 34914 ft | 484 kts | 18° |
| 2026-05-07 11:38 | -11.97377 | 159.12527 | 34915 ft | 484 kts | 18° |
| 2026-05-07 11:39 | -11.91045 | 159.14851 | 34916 ft | 484 kts | 18° |
| 2026-05-07 11:39 | -11.84714 | 159.17173 | 34915 ft | 484 kts | 18° |
| 2026-05-07 11:40 | -11.78375 | 159.19496 | 34910 ft | 484 kts | 18° |
| 2026-05-07 11:40 | -11.72039 | 159.21818 | 34909 ft | 484 kts | 18° |
| 2026-05-07 11:41 | -11.65710 | 159.24136 | 34906 ft | 484 kts | 18° |
| 2026-05-07 11:41 | -11.59409 | 159.26443 | 34910 ft | 483 kts | 18° |
| 2026-05-07 11:42 | -11.53089 | 159.28755 | 34902 ft | 483 kts | 18° |
| 2026-05-07 11:42 | -11.46766 | 159.31067 | 34907 ft | 482 kts | 18° |
| 2026-05-07 11:43 | -11.40452 | 159.33375 | 34903 ft | 482 kts | 18° |
| 2026-05-07 11:43 | -11.34142 | 159.35681 | 34904 ft | 482 kts | 18° |
| 2026-05-07 11:44 | -11.27832 | 159.37985 | 34899 ft | 482 kts | 18° |
| 2026-05-07 11:44 | -11.21526 | 159.40287 | 34902 ft | 481 kts | 18° |
| 2026-05-07 11:45 | -11.15216 | 159.42589 | 34902 ft | 481 kts | 18° |
| 2026-05-07 11:45 | -11.08913 | 159.44888 | 34901 ft | 481 kts | 18° |
| 2026-05-07 11:46 | -11.02610 | 159.47186 | 34902 ft | 481 kts | 18° |
| 2026-05-07 11:46 | -10.96308 | 159.49482 | 34894 ft | 482 kts | 18° |
| 2026-05-07 11:46 | -10.93141 | 159.50635 | 34662 ft | 485 kts | 18° |
| 2026-05-07 11:47 | -10.89967 | 159.51791 | 34435 ft | 483 kts | 18° |
| 2026-05-07 11:47 | -10.86817 | 159.52938 | 34205 ft | 480 kts | 18° |
| 2026-05-07 11:47 | -10.83674 | 159.54083 | 33988 ft | 480 kts | 18° |
| 2026-05-07 11:47 | -10.80533 | 159.55226 | 33749 ft | 480 kts | 18° |
| 2026-05-07 11:48 | -10.77387 | 159.56370 | 33498 ft | 480 kts | 18° |
| 2026-05-07 11:48 | -10.74241 | 159.57514 | 33224 ft | 477 kts | 18° |
| 2026-05-07 11:48 | -10.71151 | 159.58639 | 32969 ft | 467 kts | 18° |
| 2026-05-07 11:48 | -10.68122 | 159.59742 | 32712 ft | 458 kts | 18° |
| 2026-05-07 11:49 | -10.65155 | 159.60821 | 32454 ft | 450 kts | 18° |
| 2026-05-07 11:49 | -10.62233 | 159.61883 | 32205 ft | 442 kts | 18° |
| 2026-05-07 11:49 | -10.59361 | 159.62927 | 31955 ft | 435 kts | 18° |
| 2026-05-07 11:49 | -10.56533 | 159.63954 | 31707 ft | 428 kts | 18° |
| 2026-05-07 11:50 | -10.53756 | 159.64962 | 31457 ft | 421 kts | 18° |
| 2026-05-07 11:50 | -10.51017 | 159.65957 | 31221 ft | 416 kts | 18° |
| 2026-05-07 11:50 | -10.48297 | 159.66944 | 30990 ft | 414 kts | 18° |
| 2026-05-07 11:50 | -10.45588 | 159.67927 | 30760 ft | 412 kts | 18° |
| 2026-05-07 11:51 | -10.42888 | 159.68907 | 30537 ft | 411 kts | 18° |
| 2026-05-07 11:51 | -10.40199 | 159.69882 | 30312 ft | 411 kts | 18° |
| 2026-05-07 11:51 | -10.37607 | 159.71143 | 30063 ft | 418 kts | 36° |
| 2026-05-07 11:51 | -10.35369 | 159.73058 | 29871 ft | 420 kts | 40° |
| 2026-05-07 11:52 | -10.33209 | 159.74991 | 29600 ft | 420 kts | 40° |
| 2026-05-07 11:52 | -10.31020 | 159.76944 | 29342 ft | 419 kts | 40° |
| 2026-05-07 11:52 | -10.29541 | 159.78255 | 29158 ft | 418 kts | 40° |
| 2026-05-07 11:52 | -10.26642 | 159.80808 | 28823 ft | 414 kts | 40° |
| 2026-05-07 11:53 | -10.24471 | 159.82708 | 28564 ft | 409 kts | 40° |
| 2026-05-07 11:53 | -10.22327 | 159.84578 | 28302 ft | 403 kts | 40° |
| 2026-05-07 11:53 | -10.20898 | 159.85822 | 28124 ft | 400 kts | 40° |
| 2026-05-07 11:53 | -10.18789 | 159.87657 | 27876 ft | 397 kts | 40° |
| 2026-05-07 11:54 | -10.16701 | 159.89472 | 27625 ft | 394 kts | 40° |
| 2026-05-07 11:54 | -10.14626 | 159.91277 | 27375 ft | 392 kts | 40° |
| 2026-05-07 11:54 | -10.12563 | 159.93069 | 27141 ft | 390 kts | 40° |
| 2026-05-07 11:54 | -10.10534 | 159.94833 | 26903 ft | 388 kts | 40° |
| 2026-05-07 11:55 | -10.08486 | 159.96613 | 26670 ft | 387 kts | 40° |
| 2026-05-07 11:55 | -10.06439 | 159.98392 | 26441 ft | 391 kts | 40° |
| 2026-05-07 11:55 | -10.04384 | 160.00178 | 26255 ft | 407 kts | 41° |
| 2026-05-07 11:55 | -10.02192 | 160.02083 | 26037 ft | 423 kts | 41° |
| 2026-05-07 11:56 | -9.99919 | 160.04057 | 25831 ft | 437 kts | 41° |
| 2026-05-07 11:56 | -9.97579 | 160.06091 | 25616 ft | 449 kts | 41° |
| 2026-05-07 11:56 | -9.96060 | 160.07409 | 25474 ft | 451 kts | 41° |
| 2026-05-07 11:56 | -9.93681 | 160.09474 | 25247 ft | 450 kts | 41° |
| 2026-05-07 11:57 | -9.91307 | 160.11535 | 25017 ft | 449 kts | 41° |
| 2026-05-07 11:57 | -9.88931 | 160.13597 | 24462 ft | 450 kts | 41° |
| 2026-05-07 11:57 | -9.86560 | 160.15654 | 23861 ft | 448 kts | 41° |
| 2026-05-07 11:57 | -9.84191 | 160.17709 | 23151 ft | 448 kts | 41° |
| 2026-05-07 11:58 | -9.81831 | 160.19757 | 22472 ft | 445 kts | 42° |
| 2026-05-07 11:58 | -9.79485 | 160.21791 | 21811 ft | 442 kts | 42° |
| 2026-05-07 11:58 | -9.77155 | 160.23812 | 21178 ft | 439 kts | 42° |
| 2026-05-07 11:58 | -9.74842 | 160.25818 | 20556 ft | 436 kts | 42° |
| 2026-05-07 11:59 | -9.72547 | 160.27807 | 19925 ft | 434 kts | 42° |
| 2026-05-07 11:59 | -9.70182 | 160.29702 | 19236 ft | 434 kts | 33° |
| 2026-05-07 11:59 | -9.67375 | 160.30820 | 18608 ft | 437 kts | 13° |
| 2026-05-07 11:59 | -9.64339 | 160.30981 | 17969 ft | 439 kts | 355° |
| 2026-05-07 12:00 | -9.61449 | 160.30301 | 17851 ft | 425 kts | 341° |
| 2026-05-07 12:00 | -9.58848 | 160.28906 | 17689 ft | 413 kts | 325° |
| 2026-05-07 12:00 | -9.56579 | 160.27170 | 17280 ft | 407 kts | 323° |
| 2026-05-07 12:00 | -9.54359 | 160.25395 | 16706 ft | 406 kts | 322° |
| 2026-05-07 12:01 | -9.52152 | 160.23617 | 16173 ft | 404 kts | 322° |
| 2026-05-07 12:01 | -9.49955 | 160.21859 | 15712 ft | 400 kts | 322° |
| 2026-05-07 12:01 | -9.47799 | 160.20151 | 15269 ft | 397 kts | 323° |
| 2026-05-07 12:01 | -9.45627 | 160.18442 | 14826 ft | 393 kts | 323° |
| 2026-05-07 12:02 | -9.43472 | 160.16756 | 14385 ft | 390 kts | 323° |
| 2026-05-07 12:02 | -9.41334 | 160.15087 | 13934 ft | 387 kts | 323° |
| 2026-05-07 12:02 | -9.39202 | 160.13424 | 13502 ft | 384 kts | 323° |
| 2026-05-07 12:02 | -9.37130 | 160.11808 | 13436 ft | 368 kts | 323° |
| 2026-05-07 12:03 | -9.35158 | 160.10270 | 13296 ft | 348 kts | 323° |
| 2026-05-07 12:03 | -9.33291 | 160.08813 | 13170 ft | 330 kts | 323° |
| 2026-05-07 12:03 | -9.31516 | 160.07429 | 13057 ft | 314 kts | 323° |
| 2026-05-07 12:03 | -9.29817 | 160.06105 | 12785 ft | 305 kts | 323° |
| 2026-05-07 12:04 | -9.28143 | 160.04801 | 12331 ft | 303 kts | 323° |
| 2026-05-07 12:04 | -9.26475 | 160.03502 | 11866 ft | 301 kts | 323° |
| 2026-05-07 12:04 | -9.24824 | 160.02209 | 11424 ft | 299 kts | 320° |
| 2026-05-07 12:04 | -9.23529 | 160.00572 | 10887 ft | 301 kts | 292° |
| 2026-05-07 12:05 | -9.23112 | 159.98526 | 10472 ft | 297 kts | 266° |
| 2026-05-07 12:05 | -9.23570 | 159.96530 | 10075 ft | 290 kts | 242° |
| 2026-05-07 12:05 | -9.24717 | 159.94874 | 9570 ft | 287 kts | 224° |
| 2026-05-07 12:05 | -9.26104 | 159.93447 | 9220 ft | 282 kts | 223° |
| 2026-05-07 12:06 | -9.27464 | 159.92081 | 8847 ft | 276 kts | 223° |
| 2026-05-07 12:06 | -9.28814 | 159.90726 | 8477 ft | 271 kts | 223° |
| 2026-05-07 12:06 | -9.30140 | 159.89388 | 8160 ft | 265 kts | 223° |
| 2026-05-07 12:06 | -9.31435 | 159.88075 | 7886 ft | 263 kts | 223° |
| 2026-05-07 12:07 | -9.32722 | 159.86766 | 7628 ft | 262 kts | 223° |
| 2026-05-07 12:07 | -9.34008 | 159.85456 | 7363 ft | 262 kts | 224° |
| 2026-05-07 12:07 | -9.35294 | 159.84145 | 7104 ft | 262 kts | 224° |
| 2026-05-07 12:07 | -9.36581 | 159.82831 | 6843 ft | 263 kts | 224° |
| 2026-05-07 12:08 | -9.37862 | 159.81522 | 6570 ft | 259 kts | 223° |
| 2026-05-07 12:08 | -9.39117 | 159.80239 | 6311 ft | 254 kts | 223° |
| 2026-05-07 12:08 | -9.40444 | 159.79113 | 6015 ft | 245 kts | 203° |
| 2026-05-07 12:08 | -9.42049 | 159.78812 | 5824 ft | 232 kts | 173° |
| 2026-05-07 12:09 | -9.43625 | 159.79144 | 5601 ft | 233 kts | 158° |
| 2026-05-07 12:09 | -9.45111 | 159.79754 | 5435 ft | 225 kts | 155° |
| 2026-05-07 12:09 | -9.46518 | 159.80353 | 5335 ft | 213 kts | 155° |
| 2026-05-07 12:09 | -9.47851 | 159.80912 | 5235 ft | 204 kts | 156° |
| 2026-05-07 12:10 | -9.49164 | 159.81456 | 5153 ft | 204 kts | 156° |
| 2026-05-07 12:10 | -9.50433 | 159.82084 | 5066 ft | 203 kts | 139° |
| 2026-05-07 12:10 | -9.51186 | 159.83247 | 4882 ft | 205 kts | 103° |
| 2026-05-07 12:10 | -9.51150 | 159.84676 | 4638 ft | 204 kts | 75° |
| 2026-05-07 12:11 | -9.50633 | 159.86027 | 4355 ft | 202 kts | 69° |
| 2026-05-07 12:11 | -9.50107 | 159.87316 | 4086 ft | 199 kts | 70° |
| 2026-05-07 12:11 | -9.49585 | 159.88604 | 3779 ft | 197 kts | 70° |
| 2026-05-07 12:11 | -9.49070 | 159.89878 | 3514 ft | 194 kts | 70° |
| 2026-05-07 12:12 | -9.48564 | 159.91135 | 3245 ft | 192 kts | 70° |
| 2026-05-07 12:12 | -9.48064 | 159.92379 | 2996 ft | 189 kts | 70° |
| 2026-05-07 12:12 | -9.47576 | 159.93595 | 2695 ft | 185 kts | 70° |
| 2026-05-07 12:12 | -9.47096 | 159.94786 | 2407 ft | 179 kts | 70° |
| 2026-05-07 12:13 | -9.46638 | 159.95928 | 2119 ft | 171 kts | 70° |
| 2026-05-07 12:13 | -9.46200 | 159.97022 | 1864 ft | 164 kts | 70° |
| 2026-05-07 12:13 | -9.45783 | 159.98061 | 1664 ft | 152 kts | 70° |
| 2026-05-07 12:13 | -9.45403 | 159.99010 | 1404 ft | 143 kts | 70° |
| 2026-05-07 12:14 | -9.45037 | 159.99918 | 1221 ft | 138 kts | 70° |
| 2026-05-07 12:14 | -9.44675 | 160.00826 | 974 ft | 144 kts | 69° |
| 2026-05-07 12:14 | -9.44284 | 160.01769 | 731 ft | 147 kts | 68° |
| 2026-05-07 12:14 | -9.43896 | 160.02743 | 481 ft | 150 kts | 69° |
| 2026-05-07 12:15 | -9.43513 | 160.03724 | 242 ft | 148 kts | 68° |
| 2026-05-07 12:15 | -9.43131 | 160.04672 | 49 ft | 142 kts | 68° |
| 2026-05-07 12:15 | -9.42816 | 160.05462 | 29 ft | 81 kts | 69° |
| 2026-05-07 12:15 | -9.42654 | 160.05864 | 25 ft | 43 kts | 67° |
| 2026-05-07 12:16 | -9.42567 | 160.06080 | 29 ft | 30 kts | 68° |
| 2026-05-07 12:16 | -9.42498 | 160.06257 | 31 ft | 20 kts | 66° |
| 2026-05-07 12:16 | -9.42436 | 160.06310 | 33 ft | 6 kts | 33° |
| 2026-05-07 12:16 | -9.42443 | 160.06344 | 33 ft | 9 kts | 161° |
| 2026-05-07 12:17 | -9.42493 | 160.06272 | 30 ft | 18 kts | 247° |
| 2026-05-07 12:17 | -9.42552 | 160.06130 | 29 ft | 24 kts | 247° |
| 2026-05-07 12:17 | -9.42612 | 160.05978 | 28 ft | 23 kts | 248° |
| 2026-05-07 12:17 | -9.42670 | 160.05831 | 25 ft | 22 kts | 248° |
| 2026-05-07 12:18 | -9.42726 | 160.05688 | 27 ft | 22 kts | 248° |
| 2026-05-07 12:18 | -9.42781 | 160.05549 | 28 ft | 21 kts | 248° |
| 2026-05-07 12:18 | -9.42838 | 160.05410 | 28 ft | 23 kts | 248° |
| 2026-05-07 12:18 | -9.42903 | 160.05246 | 30 ft | 27 kts | 248° |
| 2026-05-07 12:19 | -9.42955 | 160.05116 | 32 ft | 13 kts | 248° |
| 2026-05-07 12:19 | -9.42978 | 160.05057 | 29 ft | 2 kts | 248° |
| 2026-05-07 12:19 | -9.42994 | 160.05018 | 26 ft | 12 kts | 248° |
| 2026-05-07 12:19 | -9.43031 | 160.04924 | 27 ft | 11 kts | 255° |
| 2026-05-07 12:20 | -9.42986 | 160.04872 | 27 ft | 11 kts | 336° |
| 2026-05-07 12:20 | -9.42930 | 160.04872 | 27 ft | 6 kts | 46° |
| 2026-05-07 12:20 | -9.42918 | 160.04904 | 27 ft | 1 kts | 69° |
| 2026-05-07 12:20 | -9.42915 | 160.04912 | 27 ft | 0 kts | 68° |